sensor_id;sensor_type;location;lat;lon;timestamp;temperature;humidity
12049;DHT22;6085;49.452;8.502;2023-02-28T00:01:59;-1.00;99.90
12049;DHT22;6085;49.452;8.502;2023-02-28T00:06:02;-1.00;99.90
12049;DHT22;6085;49.452;8.502;2023-02-28T00:10:05;-1.10;99.90
12049;DHT22;6085;49.452;8.502;2023-02-28T00:14:07;-1.20;99.90
12049;DHT22;6085;49.452;8.502;2023-02-28T00:18:11;-1.30;99.90
12049;DHT22;6085;49.452;8.502;2023-02-28T00:22:14;-1.30;99.90
12049;DHT22;6085;49.452;8.502;2023-02-28T00:26:16;-1.40;99.90
12049;DHT22;6085;49.452;8.502;2023-02-28T00:30:18;-1.60;99.90
12049;DHT22;6085;49.452;8.502;2023-02-28T00:34:22;-1.70;99.90
12049;DHT22;6085;49.452;8.502;2023-02-28T00:38:24;-1.70;99.90
12049;DHT22;6085;49.452;8.502;2023-02-28T00:42:26;-1.80;99.90
12049;DHT22;6085;49.452;8.502;2023-02-28T00:46:28;-1.80;99.90
12049;DHT22;6085;49.452;8.502;2023-02-28T00:50:31;-1.90;99.90
12049;DHT22;6085;49.452;8.502;2023-02-28T00:54:33;-1.90;99.90
12049;DHT22;6085;49.452;8.502;2023-02-28T00:58:35;-1.90;99.90
12049;DHT22;6085;49.452;8.502;2023-02-28T01:02:36;-1.90;99.90
12049;DHT22;6085;49.452;8.502;2023-02-28T01:06:40;-1.90;99.90
12049;DHT22;6085;49.452;8.502;2023-02-28T01:10:42;-1.90;99.90
12049;DHT22;6085;49.452;8.502;2023-02-28T01:14:44;-1.80;99.90
12049;DHT22;6085;49.452;8.502;2023-02-28T01:18:46;-1.80;99.90
12049;DHT22;6085;49.452;8.502;2023-02-28T01:22:49;-1.80;99.90
12049;DHT22;6085;49.452;8.502;2023-02-28T01:26:51;-1.80;99.90
12049;DHT22;6085;49.452;8.502;2023-02-28T01:30:53;-1.90;99.90
12049;DHT22;6085;49.452;8.502;2023-02-28T01:34:55;-1.90;99.90
12049;DHT22;6085;49.452;8.502;2023-02-28T01:38:58;-2.00;99.90
12049;DHT22;6085;49.452;8.502;2023-02-28T01:43:00;-2.10;99.90
12049;DHT22;6085;49.452;8.502;2023-02-28T01:47:01;-2.10;99.90
12049;DHT22;6085;49.452;8.502;2023-02-28T01:51:06;-2.20;99.90
12049;DHT22;6085;49.452;8.502;2023-02-28T01:55:13;-2.30;99.90
12049;DHT22;6085;49.452;8.502;2023-02-28T01:59:22;-2.50;99.90
12049;DHT22;6085;49.452;8.502;2023-02-28T02:03:26;-2.60;99.90
12049;DHT22;6085;49.452;8.502;2023-02-28T02:07:30;-2.70;99.90
12049;DHT22;6085;49.452;8.502;2023-02-28T02:11:35;-2.70;99.90
12049;DHT22;6085;49.452;8.502;2023-02-28T02:15:42;-2.70;99.90
12049;DHT22;6085;49.452;8.502;2023-02-28T02:24:52;-2.50;99.90
12049;DHT22;6085;49.452;8.502;2023-02-28T02:38:25;-2.40;99.90
12049;DHT22;6085;49.452;8.502;2023-02-28T02:42:35;-2.40;99.90
12049;DHT22;6085;49.452;8.502;2023-02-28T02:46:43;-2.50;99.90
12049;DHT22;6085;49.452;8.502;2023-02-28T02:50:48;-2.40;99.90
12049;DHT22;6085;49.452;8.502;2023-02-28T02:54:54;-2.30;99.90
12049;DHT22;6085;49.452;8.502;2023-02-28T02:59:02;-2.30;99.90
12049;DHT22;6085;49.452;8.502;2023-02-28T03:03:05;-2.30;99.90
12049;DHT22;6085;49.452;8.502;2023-02-28T03:07:08;-2.40;99.90
12049;DHT22;6085;49.452;8.502;2023-02-28T03:11:14;-2.40;99.90
12049;DHT22;6085;49.452;8.502;2023-02-28T03:15:20;-2.40;99.90
12049;DHT22;6085;49.452;8.502;2023-02-28T03:19:45;-2.50;99.90
12049;DHT22;6085;49.452;8.502;2023-02-28T03:23:53;-2.60;99.90
12049;DHT22;6085;49.452;8.502;2023-02-28T03:28:05;-2.70;99.90
12049;DHT22;6085;49.452;8.502;2023-02-28T03:32:14;-2.60;99.90
12049;DHT22;6085;49.452;8.502;2023-02-28T03:36:24;-2.60;99.90
12049;DHT22;6085;49.452;8.502;2023-02-28T03:40:30;-2.60;99.90
12049;DHT22;6085;49.452;8.502;2023-02-28T03:44:36;-2.60;99.90
12049;DHT22;6085;49.452;8.502;2023-02-28T03:48:42;-2.70;99.90
12049;DHT22;6085;49.452;8.502;2023-02-28T03:52:48;-2.70;99.90
12049;DHT22;6085;49.452;8.502;2023-02-28T03:56:54;-2.80;99.90
12049;DHT22;6085;49.452;8.502;2023-02-28T04:01:03;-2.80;99.90
12049;DHT22;6085;49.452;8.502;2023-02-28T04:05:08;-2.90;99.90
12049;DHT22;6085;49.452;8.502;2023-02-28T04:09:12;-2.80;99.90
12049;DHT22;6085;49.452;8.502;2023-02-28T04:13:15;-2.80;99.90
12049;DHT22;6085;49.452;8.502;2023-02-28T04:17:18;-2.70;99.90
12049;DHT22;6085;49.452;8.502;2023-02-28T04:21:19;-2.80;99.90
12049;DHT22;6085;49.452;8.502;2023-02-28T04:25:22;-2.90;99.90
12049;DHT22;6085;49.452;8.502;2023-02-28T04:29:26;-2.90;99.90
12049;DHT22;6085;49.452;8.502;2023-02-28T04:33:31;-2.90;99.90
12049;DHT22;6085;49.452;8.502;2023-02-28T04:37:33;-2.90;99.90
12049;DHT22;6085;49.452;8.502;2023-02-28T04:41:35;-3.00;99.90
12049;DHT22;6085;49.452;8.502;2023-02-28T04:45:37;-3.00;99.90
12049;DHT22;6085;49.452;8.502;2023-02-28T04:49:40;-3.10;99.90
12049;DHT22;6085;49.452;8.502;2023-02-28T04:53:43;-3.00;99.90
12049;DHT22;6085;49.452;8.502;2023-02-28T04:57:45;-2.90;99.90
12049;DHT22;6085;49.452;8.502;2023-02-28T05:01:48;-2.90;99.90
12049;DHT22;6085;49.452;8.502;2023-02-28T05:05:51;-2.80;99.90
12049;DHT22;6085;49.452;8.502;2023-02-28T05:09:53;-2.70;99.90
12049;DHT22;6085;49.452;8.502;2023-02-28T05:13:55;-2.60;99.90
12049;DHT22;6085;49.452;8.502;2023-02-28T05:17:57;-2.40;99.90
12049;DHT22;6085;49.452;8.502;2023-02-28T05:22:00;-2.30;99.90
12049;DHT22;6085;49.452;8.502;2023-02-28T05:26:03;-2.10;99.90
12049;DHT22;6085;49.452;8.502;2023-02-28T05:30:06;-2.00;99.90
12049;DHT22;6085;49.452;8.502;2023-02-28T05:34:10;-1.90;99.90
12049;DHT22;6085;49.452;8.502;2023-02-28T05:38:14;-1.80;99.90
12049;DHT22;6085;49.452;8.502;2023-02-28T05:42:16;-1.80;99.90
12049;DHT22;6085;49.452;8.502;2023-02-28T05:46:18;-1.80;99.90
12049;DHT22;6085;49.452;8.502;2023-02-28T05:50:20;-1.80;99.90
12049;DHT22;6085;49.452;8.502;2023-02-28T05:54:23;-1.80;99.90
12049;DHT22;6085;49.452;8.502;2023-02-28T05:58:25;-1.70;99.90
12049;DHT22;6085;49.452;8.502;2023-02-28T06:02:30;-1.70;99.90
12049;DHT22;6085;49.452;8.502;2023-02-28T06:06:33;-1.80;99.90
12049;DHT22;6085;49.452;8.502;2023-02-28T06:10:37;-1.80;99.90
12049;DHT22;6085;49.452;8.502;2023-02-28T06:14:39;-1.90;99.90
12049;DHT22;6085;49.452;8.502;2023-02-28T06:18:41;-1.90;99.90
12049;DHT22;6085;49.452;8.502;2023-02-28T06:22:43;-1.80;99.90
12049;DHT22;6085;49.452;8.502;2023-02-28T06:26:46;-1.80;99.90
12049;DHT22;6085;49.452;8.502;2023-02-28T06:30:48;-1.70;99.90
12049;DHT22;6085;49.452;8.502;2023-02-28T06:34:50;-1.60;99.90
12049;DHT22;6085;49.452;8.502;2023-02-28T06:38:52;-1.40;99.90
12049;DHT22;6085;49.452;8.502;2023-02-28T06:42:57;-1.30;99.90
12049;DHT22;6085;49.452;8.502;2023-02-28T06:46:59;-1.20;99.90
12049;DHT22;6085;49.452;8.502;2023-02-28T06:51:06;-1.00;99.90
12049;DHT22;6085;49.452;8.502;2023-02-28T06:55:08;-0.90;99.90
12049;DHT22;6085;49.452;8.502;2023-02-28T06:59:12;-0.70;99.90
12049;DHT22;6085;49.452;8.502;2023-02-28T07:03:13;-0.50;99.90
12049;DHT22;6085;49.452;8.502;2023-02-28T07:07:16;-0.30;99.90
12049;DHT22;6085;49.452;8.502;2023-02-28T07:11:18;-0.10;99.90
12049;DHT22;6085;49.452;8.502;2023-02-28T07:15:21;0.30;99.90
12049;DHT22;6085;49.452;8.502;2023-02-28T07:19:24;0.80;99.90
12049;DHT22;6085;49.452;8.502;2023-02-28T07:23:26;1.20;99.90
12049;DHT22;6085;49.452;8.502;2023-02-28T07:27:29;1.60;99.90
12049;DHT22;6085;49.452;8.502;2023-02-28T07:31:32;1.50;99.90
12049;DHT22;6085;49.452;8.502;2023-02-28T07:35:34;1.40;99.90
12049;DHT22;6085;49.452;8.502;2023-02-28T07:39:36;1.60;99.90
12049;DHT22;6085;49.452;8.502;2023-02-28T07:43:38;2.20;99.90
12049;DHT22;6085;49.452;8.502;2023-02-28T07:47:42;2.90;99.90
12049;DHT22;6085;49.452;8.502;2023-02-28T07:51:45;3.10;99.90
12049;DHT22;6085;49.452;8.502;2023-02-28T07:55:46;2.70;99.90
12049;DHT22;6085;49.452;8.502;2023-02-28T07:59:48;2.40;99.90
12049;DHT22;6085;49.452;8.502;2023-02-28T08:03:52;2.30;99.90
12049;DHT22;6085;49.452;8.502;2023-02-28T08:07:55;2.10;99.90
12049;DHT22;6085;49.452;8.502;2023-02-28T08:11:57;2.20;99.90
12049;DHT22;6085;49.452;8.502;2023-02-28T08:16:01;2.50;99.90
12049;DHT22;6085;49.452;8.502;2023-02-28T08:20:06;3.10;99.90
12049;DHT22;6085;49.452;8.502;2023-02-28T08:24:09;3.90;99.90
12049;DHT22;6085;49.452;8.502;2023-02-28T08:28:11;5.70;99.90
12049;DHT22;6085;49.452;8.502;2023-02-28T08:32:13;7.90;99.90
12049;DHT22;6085;49.452;8.502;2023-02-28T08:36:16;8.50;99.90
12049;DHT22;6085;49.452;8.502;2023-02-28T08:40:18;9.80;98.40
12049;DHT22;6085;49.452;8.502;2023-02-28T08:44:20;10.70;95.20
12049;DHT22;6085;49.452;8.502;2023-02-28T08:48:22;10.50;93.50
12049;DHT22;6085;49.452;8.502;2023-02-28T08:52:25;10.70;92.60
12049;DHT22;6085;49.452;8.502;2023-02-28T08:56:28;11.70;90.40
12049;DHT22;6085;49.452;8.502;2023-02-28T09:00:30;12.20;85.70
12049;DHT22;6085;49.452;8.502;2023-02-28T09:04:33;12.00;82.80
12049;DHT22;6085;49.452;8.502;2023-02-28T09:08:36;12.40;81.70
12049;DHT22;6085;49.452;8.502;2023-02-28T09:12:38;13.00;76.10
12049;DHT22;6085;49.452;8.502;2023-02-28T09:16:40;13.30;74.10
12049;DHT22;6085;49.452;8.502;2023-02-28T09:20:43;13.70;69.90
12049;DHT22;6085;49.452;8.502;2023-02-28T09:24:46;13.30;69.40
12049;DHT22;6085;49.452;8.502;2023-02-28T09:28:48;13.70;68.60
12049;DHT22;6085;49.452;8.502;2023-02-28T09:32:50;13.90;64.40
12049;DHT22;6085;49.452;8.502;2023-02-28T09:36:54;13.30;65.80
12049;DHT22;6085;49.452;8.502;2023-02-28T09:41:00;12.40;65.90
12049;DHT22;6085;49.452;8.502;2023-02-28T09:45:06;11.10;69.50
12049;DHT22;6085;49.452;8.502;2023-02-28T09:49:16;11.30;69.50
12049;DHT22;6085;49.452;8.502;2023-02-28T09:53:22;12.60;66.10
12049;DHT22;6085;49.452;8.502;2023-02-28T09:57:35;12.80;65.40
12049;DHT22;6085;49.452;8.502;2023-02-28T10:01:43;12.40;65.60
12049;DHT22;6085;49.452;8.502;2023-02-28T10:05:53;11.30;67.30
12049;DHT22;6085;49.452;8.502;2023-02-28T10:09:59;10.50;69.10
12049;DHT22;6085;49.452;8.502;2023-02-28T10:14:11;10.80;67.50
12049;DHT22;6085;49.452;8.502;2023-02-28T10:18:19;12.00;65.50
12049;DHT22;6085;49.452;8.502;2023-02-28T10:22:25;13.20;64.00
12049;DHT22;6085;49.452;8.502;2023-02-28T10:26:29;13.30;61.70
12049;DHT22;6085;49.452;8.502;2023-02-28T10:30:34;12.50;62.60
12049;DHT22;6085;49.452;8.502;2023-02-28T10:34:36;10.50;67.00
12049;DHT22;6085;49.452;8.502;2023-02-28T10:38:39;11.60;64.50
12049;DHT22;6085;49.452;8.502;2023-02-28T10:42:41;12.70;62.00
12049;DHT22;6085;49.452;8.502;2023-02-28T10:46:45;11.80;63.40
12049;DHT22;6085;49.452;8.502;2023-02-28T10:50:52;11.10;64.90
12049;DHT22;6085;49.452;8.502;2023-02-28T10:55:14;11.10;64.90
12049;DHT22;6085;49.452;8.502;2023-02-28T10:59:28;10.20;67.30
12049;DHT22;6085;49.452;8.502;2023-02-28T11:03:34;10.50;66.70
12049;DHT22;6085;49.452;8.502;2023-02-28T11:07:36;9.90;68.50
12049;DHT22;6085;49.452;8.502;2023-02-28T11:11:43;8.40;72.70
12049;DHT22;6085;49.452;8.502;2023-02-28T11:15:51;7.30;75.00
12049;DHT22;6085;49.452;8.502;2023-02-28T11:19:57;6.50;78.10
12049;DHT22;6085;49.452;8.502;2023-02-28T11:24:02;6.10;80.30
12049;DHT22;6085;49.452;8.502;2023-02-28T11:28:06;5.80;81.60
12049;DHT22;6085;49.452;8.502;2023-02-28T11:32:25;5.80;83.00
12049;DHT22;6085;49.452;8.502;2023-02-28T11:36:31;5.70;84.10
12049;DHT22;6085;49.452;8.502;2023-02-28T11:40:41;5.90;85.40
12049;DHT22;6085;49.452;8.502;2023-02-28T11:44:59;6.90;82.50
12049;DHT22;6085;49.452;8.502;2023-02-28T11:49:15;7.60;80.00
12049;DHT22;6085;49.452;8.502;2023-02-28T11:53:41;7.40;79.80
12049;DHT22;6085;49.452;8.502;2023-02-28T11:58:33;8.00;79.40
12049;DHT22;6085;49.452;8.502;2023-02-28T12:02:53;7.80;78.70
12049;DHT22;6085;49.452;8.502;2023-02-28T12:07:06;8.50;78.30
12049;DHT22;6085;49.452;8.502;2023-02-28T12:11:19;9.30;76.80
12049;DHT22;6085;49.452;8.502;2023-02-28T12:15:50;9.80;75.60
12049;DHT22;6085;49.452;8.502;2023-02-28T12:20:05;9.60;74.90
12049;DHT22;6085;49.452;8.502;2023-02-28T12:28:52;10.50;72.50
12049;DHT22;6085;49.452;8.502;2023-02-28T12:32:58;9.50;73.50
12049;DHT22;6085;49.452;8.502;2023-02-28T12:37:06;8.30;76.10
12049;DHT22;6085;49.452;8.502;2023-02-28T12:41:13;7.60;78.40
12049;DHT22;6085;49.452;8.502;2023-02-28T12:45:19;7.10;80.90
12049;DHT22;6085;49.452;8.502;2023-02-28T12:49:27;7.70;80.10
12049;DHT22;6085;49.452;8.502;2023-02-28T12:53:38;8.50;77.20
12049;DHT22;6085;49.452;8.502;2023-02-28T12:57:48;9.00;75.70
12049;DHT22;6085;49.452;8.502;2023-02-28T13:06:28;9.40;74.10
12049;DHT22;6085;49.452;8.502;2023-02-28T13:10:43;9.60;73.90
12049;DHT22;6085;49.452;8.502;2023-02-28T13:14:46;9.70;73.70
12049;DHT22;6085;49.452;8.502;2023-02-28T13:18:50;9.90;73.10
12049;DHT22;6085;49.452;8.502;2023-02-28T13:22:54;9.50;73.50
12049;DHT22;6085;49.452;8.502;2023-02-28T13:31:28;9.80;74.50
12049;DHT22;6085;49.452;8.502;2023-02-28T13:35:46;9.80;73.70
12049;DHT22;6085;49.452;8.502;2023-02-28T13:39:50;10.00;72.00
12049;DHT22;6085;49.452;8.502;2023-02-28T13:44:02;9.40;73.90
12049;DHT22;6085;49.452;8.502;2023-02-28T13:48:14;8.30;76.70
12049;DHT22;6085;49.452;8.502;2023-02-28T13:52:22;8.20;77.20
12049;DHT22;6085;49.452;8.502;2023-02-28T13:56:35;7.90;77.80
12049;DHT22;6085;49.452;8.502;2023-02-28T14:01:02;7.70;79.20
12049;DHT22;6085;49.452;8.502;2023-02-28T14:05:13;7.70;80.70
12049;DHT22;6085;49.452;8.502;2023-02-28T14:09:23;8.60;77.60
12049;DHT22;6085;49.452;8.502;2023-02-28T14:13:40;9.10;76.60
12049;DHT22;6085;49.452;8.502;2023-02-28T14:17:44;8.90;77.50
12049;DHT22;6085;49.452;8.502;2023-02-28T14:21:59;8.70;77.70
12049;DHT22;6085;49.452;8.502;2023-02-28T14:26:12;8.50;77.20
12049;DHT22;6085;49.452;8.502;2023-02-28T14:30:43;8.30;78.80
12049;DHT22;6085;49.452;8.502;2023-02-28T14:34:54;7.90;79.50
12049;DHT22;6085;49.452;8.502;2023-02-28T14:38:59;7.80;79.80
12049;DHT22;6085;49.452;8.502;2023-02-28T14:43:05;7.60;80.40
12049;DHT22;6085;49.452;8.502;2023-02-28T14:47:14;7.50;80.30
12049;DHT22;6085;49.452;8.502;2023-02-28T14:51:21;7.70;81.70
12049;DHT22;6085;49.452;8.502;2023-02-28T14:55:26;7.70;80.70
12049;DHT22;6085;49.452;8.502;2023-02-28T14:59:32;7.60;81.20
12049;DHT22;6085;49.452;8.502;2023-02-28T15:03:36;8.00;81.60
12049;DHT22;6085;49.452;8.502;2023-02-28T15:07:38;8.00;81.20
12049;DHT22;6085;49.452;8.502;2023-02-28T15:11:41;8.00;81.20
12049;DHT22;6085;49.452;8.502;2023-02-28T15:15:52;8.20;81.90
12049;DHT22;6085;49.452;8.502;2023-02-28T15:19:57;8.00;81.80
12049;DHT22;6085;49.452;8.502;2023-02-28T15:24:02;7.60;82.10
12049;DHT22;6085;49.452;8.502;2023-02-28T15:28:09;7.50;83.50
12049;DHT22;6085;49.452;8.502;2023-02-28T15:32:26;7.40;83.30
12049;DHT22;6085;49.452;8.502;2023-02-28T15:36:31;7.30;82.80
12049;DHT22;6085;49.452;8.502;2023-02-28T15:40:37;7.10;84.50
12049;DHT22;6085;49.452;8.502;2023-02-28T15:44:39;7.10;85.00
12049;DHT22;6085;49.452;8.502;2023-02-28T15:48:48;6.70;86.20
12049;DHT22;6085;49.452;8.502;2023-02-28T15:52:52;6.50;86.60
12049;DHT22;6085;49.452;8.502;2023-02-28T15:56:56;6.20;88.10
12049;DHT22;6085;49.452;8.502;2023-02-28T16:01:16;5.90;89.60
12049;DHT22;6085;49.452;8.502;2023-02-28T16:05:23;5.50;90.20
12049;DHT22;6085;49.452;8.502;2023-02-28T16:09:31;5.20;91.00
12049;DHT22;6085;49.452;8.502;2023-02-28T16:13:33;5.00;91.50
12049;DHT22;6085;49.452;8.502;2023-02-28T16:17:38;4.90;91.90
12049;DHT22;6085;49.452;8.502;2023-02-28T16:21:41;4.70;92.10
12049;DHT22;6085;49.452;8.502;2023-02-28T16:25:44;4.60;92.90
12049;DHT22;6085;49.452;8.502;2023-02-28T16:29:47;4.50;93.40
12049;DHT22;6085;49.452;8.502;2023-02-28T16:33:49;4.40;93.80
12049;DHT22;6085;49.452;8.502;2023-02-28T16:37:53;4.30;94.30
12049;DHT22;6085;49.452;8.502;2023-02-28T16:41:56;4.10;95.20
12049;DHT22;6085;49.452;8.502;2023-02-28T16:45:58;4.10;95.40
12049;DHT22;6085;49.452;8.502;2023-02-28T16:50:04;4.00;96.50
12049;DHT22;6085;49.452;8.502;2023-02-28T16:54:07;3.90;97.50
12049;DHT22;6085;49.452;8.502;2023-02-28T16:58:14;3.70;98.20
12049;DHT22;6085;49.452;8.502;2023-02-28T17:02:18;3.50;99.40
12049;DHT22;6085;49.452;8.502;2023-02-28T17:06:22;3.40;99.90
12049;DHT22;6085;49.452;8.502;2023-02-28T17:10:26;3.30;99.90
12049;DHT22;6085;49.452;8.502;2023-02-28T17:14:28;3.20;99.90
12049;DHT22;6085;49.452;8.502;2023-02-28T17:18:30;3.10;99.90
12049;DHT22;6085;49.452;8.502;2023-02-28T17:22:34;3.00;99.90
12049;DHT22;6085;49.452;8.502;2023-02-28T17:26:37;2.80;99.90
12049;DHT22;6085;49.452;8.502;2023-02-28T17:30:39;2.60;99.90
12049;DHT22;6085;49.452;8.502;2023-02-28T17:34:47;2.50;99.90
12049;DHT22;6085;49.452;8.502;2023-02-28T17:38:49;2.30;99.90
12049;DHT22;6085;49.452;8.502;2023-02-28T17:42:52;2.30;99.90
12049;DHT22;6085;49.452;8.502;2023-02-28T17:46:56;2.20;99.90
12049;DHT22;6085;49.452;8.502;2023-02-28T17:50:57;2.10;99.90
12049;DHT22;6085;49.452;8.502;2023-02-28T17:54:59;2.00;99.90
12049;DHT22;6085;49.452;8.502;2023-02-28T17:59:02;2.00;99.90
12049;DHT22;6085;49.452;8.502;2023-02-28T18:03:05;2.00;99.90
12049;DHT22;6085;49.452;8.502;2023-02-28T18:07:08;2.10;99.90
12049;DHT22;6085;49.452;8.502;2023-02-28T18:11:10;2.10;99.90
12049;DHT22;6085;49.452;8.502;2023-02-28T18:15:20;2.10;99.90
12049;DHT22;6085;49.452;8.502;2023-02-28T18:19:23;2.00;99.90
12049;DHT22;6085;49.452;8.502;2023-02-28T18:23:25;2.10;99.90
12049;DHT22;6085;49.452;8.502;2023-02-28T18:27:26;2.10;99.90
12049;DHT22;6085;49.452;8.502;2023-02-28T18:31:30;2.00;99.90
12049;DHT22;6085;49.452;8.502;2023-02-28T18:35:32;2.00;99.90
12049;DHT22;6085;49.452;8.502;2023-02-28T18:39:37;2.00;99.90
12049;DHT22;6085;49.452;8.502;2023-02-28T18:43:39;2.00;99.90
12049;DHT22;6085;49.452;8.502;2023-02-28T18:47:42;2.00;99.90
12049;DHT22;6085;49.452;8.502;2023-02-28T18:51:44;1.80;99.90
12049;DHT22;6085;49.452;8.502;2023-02-28T18:55:46;1.70;99.90
12049;DHT22;6085;49.452;8.502;2023-02-28T18:59:47;1.50;99.90
12049;DHT22;6085;49.452;8.502;2023-02-28T19:03:51;1.40;99.90
12049;DHT22;6085;49.452;8.502;2023-02-28T19:07:52;1.20;99.90
12049;DHT22;6085;49.452;8.502;2023-02-28T19:11:54;1.20;99.90
12049;DHT22;6085;49.452;8.502;2023-02-28T19:16:00;1.20;99.90
12049;DHT22;6085;49.452;8.502;2023-02-28T19:20:04;1.20;99.90
12049;DHT22;6085;49.452;8.502;2023-02-28T19:24:06;1.10;99.90
12049;DHT22;6085;49.452;8.502;2023-02-28T19:28:08;1.10;99.90
12049;DHT22;6085;49.452;8.502;2023-02-28T19:32:10;1.10;99.90
12049;DHT22;6085;49.452;8.502;2023-02-28T19:36:14;1.10;99.90
12049;DHT22;6085;49.452;8.502;2023-02-28T19:40:16;1.10;99.90
12049;DHT22;6085;49.452;8.502;2023-02-28T19:44:18;1.00;99.90
12049;DHT22;6085;49.452;8.502;2023-02-28T19:48:20;0.90;99.90
12049;DHT22;6085;49.452;8.502;2023-02-28T19:52:26;0.90;99.90
12049;DHT22;6085;49.452;8.502;2023-02-28T19:56:27;0.80;99.90
12049;DHT22;6085;49.452;8.502;2023-02-28T20:00:29;0.70;99.90
12049;DHT22;6085;49.452;8.502;2023-02-28T20:04:31;0.70;99.90
12049;DHT22;6085;49.452;8.502;2023-02-28T20:08:35;0.60;99.90
12049;DHT22;6085;49.452;8.502;2023-02-28T20:12:37;0.50;99.90
12049;DHT22;6085;49.452;8.502;2023-02-28T20:16:39;0.30;99.90
12049;DHT22;6085;49.452;8.502;2023-02-28T20:20:40;0.20;99.90
12049;DHT22;6085;49.452;8.502;2023-02-28T20:24:44;0.10;99.90
12049;DHT22;6085;49.452;8.502;2023-02-28T20:28:47;0.00;99.90
12049;DHT22;6085;49.452;8.502;2023-02-28T20:32:49;0.00;99.90
12049;DHT22;6085;49.452;8.502;2023-02-28T20:36:50;-0.10;99.90
12049;DHT22;6085;49.452;8.502;2023-02-28T20:40:54;-0.10;99.90
12049;DHT22;6085;49.452;8.502;2023-02-28T20:44:56;-0.10;99.90
12049;DHT22;6085;49.452;8.502;2023-02-28T20:48:58;-0.20;99.90
12049;DHT22;6085;49.452;8.502;2023-02-28T20:53:00;-0.10;99.90
12049;DHT22;6085;49.452;8.502;2023-02-28T20:57:03;-0.10;99.90
12049;DHT22;6085;49.452;8.502;2023-02-28T21:01:07;-0.10;99.90
12049;DHT22;6085;49.452;8.502;2023-02-28T21:05:12;-0.10;99.90
12049;DHT22;6085;49.452;8.502;2023-02-28T21:09:14;-0.20;99.90
12049;DHT22;6085;49.452;8.502;2023-02-28T21:13:17;-0.40;99.90
12049;DHT22;6085;49.452;8.502;2023-02-28T21:17:19;-0.60;99.90
12049;DHT22;6085;49.452;8.502;2023-02-28T21:21:23;-0.80;99.90
12049;DHT22;6085;49.452;8.502;2023-02-28T21:25:25;-0.90;99.90
12049;DHT22;6085;49.452;8.502;2023-02-28T21:29:28;-0.90;99.90
12049;DHT22;6085;49.452;8.502;2023-02-28T21:33:30;-0.90;99.90
12049;DHT22;6085;49.452;8.502;2023-02-28T21:37:32;-0.90;99.90
12049;DHT22;6085;49.452;8.502;2023-02-28T21:41:35;-0.90;99.90
12049;DHT22;6085;49.452;8.502;2023-02-28T21:45:38;-0.90;99.90
12049;DHT22;6085;49.452;8.502;2023-02-28T21:49:40;-0.90;99.90
12049;DHT22;6085;49.452;8.502;2023-02-28T21:53:42;-0.90;99.90
12049;DHT22;6085;49.452;8.502;2023-02-28T21:57:44;-1.00;99.90
12049;DHT22;6085;49.452;8.502;2023-02-28T22:01:48;-1.10;99.90
12049;DHT22;6085;49.452;8.502;2023-02-28T22:05:50;-1.20;99.90
12049;DHT22;6085;49.452;8.502;2023-02-28T22:09:52;-1.20;99.90
12049;DHT22;6085;49.452;8.502;2023-02-28T22:13:55;-1.10;99.90
12049;DHT22;6085;49.452;8.502;2023-02-28T22:17:59;-0.90;99.90
12049;DHT22;6085;49.452;8.502;2023-02-28T22:22:00;-0.80;99.90
12049;DHT22;6085;49.452;8.502;2023-02-28T22:26:04;-0.70;99.90
12049;DHT22;6085;49.452;8.502;2023-02-28T22:30:08;-0.50;99.90
12049;DHT22;6085;49.452;8.502;2023-02-28T22:34:12;-0.40;99.90
12049;DHT22;6085;49.452;8.502;2023-02-28T22:38:14;-0.50;99.90
12049;DHT22;6085;49.452;8.502;2023-02-28T22:42:16;-0.60;99.90
12049;DHT22;6085;49.452;8.502;2023-02-28T22:46:18;-0.30;99.90
12049;DHT22;6085;49.452;8.502;2023-02-28T22:50:21;0.00;99.90
12049;DHT22;6085;49.452;8.502;2023-02-28T22:54:23;0.10;99.90
12049;DHT22;6085;49.452;8.502;2023-02-28T22:58:25;-0.10;99.90
12049;DHT22;6085;49.452;8.502;2023-02-28T23:02:27;-0.40;99.90
12049;DHT22;6085;49.452;8.502;2023-02-28T23:06:32;-0.50;99.90
12049;DHT22;6085;49.452;8.502;2023-02-28T23:10:34;-0.60;99.90
12049;DHT22;6085;49.452;8.502;2023-02-28T23:14:36;-0.70;99.90
12049;DHT22;6085;49.452;8.502;2023-02-28T23:18:38;-0.80;99.90
12049;DHT22;6085;49.452;8.502;2023-02-28T23:22:41;-1.00;99.90
12049;DHT22;6085;49.452;8.502;2023-02-28T23:26:47;-1.10;99.90
12049;DHT22;6085;49.452;8.502;2023-02-28T23:30:49;-1.20;99.90
12049;DHT22;6085;49.452;8.502;2023-02-28T23:34:52;-1.00;99.90
12049;DHT22;6085;49.452;8.502;2023-02-28T23:38:56;-0.80;99.90
12049;DHT22;6085;49.452;8.502;2023-02-28T23:42:58;-0.70;99.90
12049;DHT22;6085;49.452;8.502;2023-02-28T23:47:00;-0.60;99.90
12049;DHT22;6085;49.452;8.502;2023-02-28T23:51:03;-0.50;99.90
12049;DHT22;6085;49.452;8.502;2023-02-28T23:55:10;-0.50;99.90
12049;DHT22;6085;49.452;8.502;2023-02-28T23:59:12;-0.60;99.90
